createdAt,value
2022-10-17T00:02:25.289Z,94932.22
2022-10-17T00:04:51.692Z,94878.84
2022-10-17T00:07:18.077Z,94832.34
2022-10-17T00:09:44.480Z,94810.53
2022-10-17T00:12:10.965Z,94797.41
2022-10-17T00:14:37.508Z,94822.19
2022-10-17T00:17:03.878Z,94823.41
2022-10-17T00:19:30.277Z,94846.81
2022-10-17T00:21:56.670Z,94811.66
2022-10-17T00:24:23.056Z,94738.13
2022-10-17T00:26:49.446Z,94682.31
2022-10-17T00:29:15.821Z,94618.47
2022-10-17T00:31:42.293Z,94558.25
2022-10-17T00:34:08.691Z,94512.97
2022-10-17T00:36:35.089Z,94489.50
2022-10-17T00:39:01.468Z,94453.53
2022-10-17T00:41:29.946Z,94426.84
2022-10-17T00:43:56.317Z,94405.22
2022-10-17T00:46:23.644Z,94375.72
2022-10-17T00:48:50.943Z,94310.41
2022-10-17T00:51:17.333Z,94272.38
2022-10-17T00:53:43.682Z,94236.00
2022-10-17T00:56:10.054Z,94236.88
2022-10-17T00:58:36.429Z,94223.53
2022-10-17T01:01:03.056Z,94202.94
2022-10-17T01:03:29.455Z,94191.03
2022-10-17T01:05:55.836Z,94198.56
2022-10-17T01:08:22.228Z,94207.06
2022-10-17T01:11:05.641Z,94186.84
2022-10-17T01:13:37.449Z,94176.34
2022-10-17T01:16:11.726Z,94161.59
2022-10-17T01:18:41.100Z,94148.91
2022-10-17T01:21:55.609Z,94148.31
2022-10-17T01:24:49.273Z,94147.72
2022-10-17T01:27:53.272Z,94172.00
2022-10-17T01:30:19.628Z,94202.53
2022-10-17T01:32:49.539Z,94256.69
2022-10-17T01:35:33.570Z,94298.72
2022-10-17T01:38:07.540Z,94358.34
2022-10-17T01:40:56.359Z,94403.78
2022-10-17T01:43:38.470Z,94462.75
2022-10-17T01:46:27.019Z,94454.47
2022-10-17T01:48:53.386Z,94462.53
2022-10-17T01:51:26.600Z,94462.53
2022-10-17T01:53:56.622Z,94467.78
2022-10-17T01:56:23.711Z,94489.78
2022-10-17T01:58:52.802Z,94497.66
2022-10-17T02:01:19.313Z,94472.25
2022-10-17T02:03:46.044Z,94457.28
2022-10-17T02:06:12.427Z,94451.44
2022-10-17T02:08:42.076Z,94461.34
2022-10-17T02:11:26.676Z,94472.84
2022-10-17T02:14:05.921Z,94487.78
2022-10-17T02:16:42.137Z,94507.75
2022-10-17T02:19:55.170Z,94536.41
2022-10-17T02:22:24.696Z,94570.31
2022-10-17T02:24:54.167Z,94600.19
2022-10-17T02:27:24.042Z,94625.78
2022-10-17T02:29:57.134Z,94650.81
2022-10-17T02:32:35.770Z,94667.19
2022-10-17T02:35:02.740Z,94689.34
2022-10-17T02:37:30.015Z,94708.69
2022-10-17T02:39:57.478Z,94720.41
2022-10-17T02:42:23.897Z,94723.66
2022-10-17T02:44:50.269Z,94730.88
2022-10-17T02:47:26.045Z,94748.66
2022-10-17T02:49:53.696Z,94743.81
2022-10-17T02:52:22.545Z,94739.78
2022-10-17T02:54:52.709Z,94737.78
2022-10-17T02:57:24.042Z,94733.91
2022-10-17T02:59:50.436Z,94740.16
2022-10-17T03:02:16.918Z,94720.41
2022-10-17T03:04:45.821Z,94688.16
2022-10-17T03:07:12.210Z,94649.78
2022-10-17T03:09:38.600Z,94633.25
2022-10-17T03:12:05.555Z,94626.41
2022-10-17T03:14:31.937Z,94630.81
2022-10-17T03:16:58.390Z,94612.69
2022-10-17T03:19:24.794Z,94600.56
2022-10-17T03:21:51.183Z,94577.56
2022-10-17T03:24:17.575Z,94523.91
2022-10-17T03:26:44.043Z,94480.69
2022-10-17T03:29:10.455Z,94447.03
2022-10-17T03:31:36.902Z,94436.72
2022-10-17T03:34:03.704Z,94398.75
2022-10-17T03:36:30.098Z,94357.38
2022-10-17T03:38:56.510Z,94341.03
2022-10-17T03:41:22.900Z,94320.03
2022-10-17T03:43:49.309Z,94304.31
2022-10-17T03:46:15.742Z,94307.13
2022-10-17T03:48:42.123Z,94296.63
2022-10-17T03:51:09.251Z,94279.66
2022-10-17T03:53:35.732Z,94283.31
2022-10-17T03:56:15.784Z,94272.41
2022-10-17T03:58:42.236Z,94272.81
2022-10-17T04:01:09.615Z,94285.75
2022-10-17T04:03:36.074Z,94289.41
2022-10-17T04:06:03.054Z,94310.78
2022-10-17T04:08:29.664Z,94330.56
2022-10-17T04:11:02.634Z,94346.31
2022-10-17T04:13:29.156Z,94360.63
2022-10-17T04:16:03.531Z,94372.94
2022-10-17T04:18:30.134Z,94377.41
2022-10-17T04:20:56.678Z,94391.53
2022-10-17T04:23:23.349Z,94399.59
2022-10-17T04:25:49.723Z,94412.09
2022-10-17T04:28:16.111Z,94435.09
2022-10-17T04:30:45.130Z,94436.13
2022-10-17T04:33:12.124Z,94445.59
2022-10-17T04:35:38.495Z,94435.09
2022-10-17T04:38:04.882Z,94433.06
2022-10-17T04:40:31.335Z,94446.38
2022-10-17T04:42:57.759Z,94429.44
2022-10-17T04:45:24.137Z,94415.34
2022-10-17T04:47:50.511Z,94423.59
2022-10-17T04:50:16.890Z,94424.63
2022-10-17T04:52:43.257Z,94432.69
2022-10-17T04:55:09.659Z,94438.31
2022-10-17T04:57:37.367Z,94433.06
2022-10-17T05:00:04.178Z,94411.50
2022-10-17T05:02:30.964Z,94402.22
2022-10-17T05:04:57.587Z,94381.81
2022-10-17T05:07:23.987Z,94390.09
2022-10-17T05:09:53.181Z,94391.53
2022-10-17T05:12:19.553Z,94421.78
2022-10-17T05:14:45.951Z,94435.88
2022-10-17T05:17:12.324Z,94464.53
2022-10-17T05:19:38.730Z,94488.13
2022-10-17T05:22:05.116Z,94511.34
2022-10-17T05:24:31.506Z,94529.28
2022-10-17T05:26:57.905Z,94546.84
2022-10-17T05:29:24.324Z,94535.13
2022-10-17T05:31:50.776Z,94515.38
2022-10-17T05:34:17.199Z,94496.63
2022-10-17T05:36:43.585Z,94481.50
2022-10-17T05:39:10.482Z,94485.50
2022-10-17T05:41:36.873Z,94477.44
2022-10-17T05:44:05.557Z,94452.06
2022-10-17T05:46:32.341Z,94417.75
2022-10-17T05:48:58.704Z,94402.63
2022-10-17T05:51:25.085Z,94403.22
2022-10-17T05:53:51.516Z,94413.09
2022-10-17T05:56:20.261Z,94428.84
2022-10-17T05:58:53.222Z,94420.78
2022-10-17T06:01:21.523Z,94417.53
2022-10-17T06:03:47.947Z,94434.28
2022-10-17T06:06:14.669Z,94421.38
2022-10-17T06:08:41.111Z,94421.38
2022-10-17T06:11:10.063Z,94413.72
2022-10-17T06:13:37.318Z,94419.75
2022-10-17T06:16:03.779Z,94423.78
2022-10-17T06:18:30.161Z,94441.13
2022-10-17T06:21:05.673Z,94454.47
2022-10-17T06:23:32.199Z,94460.13
2022-10-17T06:26:02.728Z,94445.19
2022-10-17T06:28:29.210Z,94429.03
2022-10-17T06:30:55.656Z,94413.69
2022-10-17T06:33:23.227Z,94381.81
2022-10-17T06:35:53.527Z,94328.53
2022-10-17T06:38:20.238Z,94277.25
2022-10-17T06:40:46.669Z,94254.66
2022-10-17T06:43:13.573Z,94249.41
2022-10-17T06:45:40.100Z,94236.91
2022-10-17T06:48:06.977Z,94235.28
2022-10-17T06:50:33.415Z,94216.91
2022-10-17T06:52:59.820Z,94207.03
2022-10-17T06:55:26.231Z,94171.50
2022-10-17T06:57:55.076Z,94156.53
2022-10-17T07:00:23.430Z,94125.03
2022-10-17T07:02:49.873Z,94090.09
2022-10-17T07:05:16.415Z,94008.28
2022-10-17T07:07:44.775Z,93979.56
2022-10-17T07:10:12.830Z,93938.31
2022-10-17T07:12:39.304Z,93904.34
2022-10-17T07:15:06.058Z,93863.50
2022-10-17T07:17:32.739Z,93831.13
2022-10-17T07:19:59.160Z,93788.22
2022-10-17T07:22:25.630Z,93726.19
2022-10-17T07:24:52.097Z,93594.00
2022-10-17T07:27:18.535Z,93467.50
2022-10-17T07:29:44.916Z,93349.28
2022-10-17T07:32:11.304Z,93240.78
2022-10-17T07:34:37.664Z,93155.69
2022-10-17T07:37:04.176Z,93091.03
2022-10-17T07:39:30.536Z,93020.09
2022-10-17T07:41:56.973Z,92979.16
2022-10-17T07:44:23.355Z,92931.34
2022-10-17T07:46:49.815Z,92837.84
2022-10-17T07:49:16.311Z,92765.84
2022-10-17T07:51:43.115Z,92709.06
2022-10-17T07:54:09.584Z,92655.97
2022-10-17T07:56:36.199Z,92705.97
2022-10-17T07:59:05.206Z,92649.66
2022-10-17T08:01:34.723Z,92632.31
2022-10-17T08:04:01.213Z,92603.41
2022-10-17T08:06:27.590Z,92563.94
2022-10-17T08:08:54.027Z,92536.63
2022-10-17T08:11:21.227Z,92481.88
2022-10-17T08:13:47.599Z,92461.31
2022-10-17T08:16:14.040Z,92418.66
2022-10-17T08:18:41.223Z,92375.16
2022-10-17T08:21:08.396Z,92345.56
2022-10-17T08:23:34.856Z,92327.38
2022-10-17T08:26:02.184Z,92281.59
2022-10-17T08:28:28.700Z,92284.97
2022-10-17T08:31:03.179Z,92285.97
2022-10-17T08:33:29.552Z,92292.69
2022-10-17T08:35:58.583Z,92362.03
2022-10-17T08:38:27.768Z,92372.44
2022-10-17T08:40:56.372Z,92509.63
2022-10-17T08:43:45.014Z,92633.34
2022-10-17T08:46:11.689Z,92778.50
2022-10-17T08:48:43.984Z,93059.97
2022-10-17T08:51:25.511Z,93378.47
2022-10-17T08:54:00.533Z,93623.75
2022-10-17T08:56:44.533Z,93775.13
2022-10-17T08:59:21.941Z,93929.59
2022-10-17T09:02:01.858Z,94186.84
2022-10-17T09:04:52.881Z,94421.41
2022-10-17T09:07:33.729Z,94534.69
2022-10-17T09:10:11.533Z,94743.66
2022-10-17T09:12:38.110Z,94882.19
2022-10-17T09:15:23.871Z,95080.41
2022-10-17T09:18:02.040Z,95305.69
2022-10-17T09:20:31.725Z,95500.28
2022-10-17T09:23:02.038Z,95867.41
2022-10-17T09:25:28.514Z,96164.22
2022-10-17T09:28:06.433Z,96286.94
2022-10-17T09:30:56.009Z,96491.84
2022-10-17T09:33:42.395Z,96705.13
2022-10-17T09:36:21.368Z,96884.44
2022-10-17T09:38:49.696Z,97012.09
2022-10-17T09:44:14.313Z,97175.38
2022-10-17T09:46:40.739Z,97200.03
2022-10-17T09:49:17.247Z,97208.19
2022-10-17T09:51:44.016Z,97269.16
2022-10-17T09:54:59.957Z,97397.91
2022-10-17T09:57:26.457Z,97379.34
2022-10-17T10:00:00.718Z,97461.66
2022-10-17T10:02:29.090Z,97454.16
2022-10-17T10:05:21.547Z,97564.09
2022-10-17T10:08:02.629Z,97603.09
2022-10-17T10:10:29.535Z,97558.25
2022-10-17T10:13:07.566Z,97547.63
2022-10-17T10:15:40.931Z,97675.50
2022-10-17T10:18:33.110Z,97683.47
2022-10-17T10:21:23.757Z,97787.81
2022-10-17T10:24:06.648Z,97878.91
2022-10-17T10:26:46.100Z,97932.16
2022-10-17T10:29:38.140Z,97904.50
2022-10-17T10:32:33.637Z,98005.00
2022-10-17T10:35:07.457Z,98116.53
2022-10-17T10:37:38.838Z,98149.78
2022-10-17T10:40:31.593Z,98203.72
2022-10-17T10:43:02.638Z,98193.38
2022-10-17T10:45:52.820Z,98215.06
2022-10-17T10:48:24.178Z,98233.78
2022-10-17T10:51:13.057Z,98275.44
2022-10-17T10:53:54.489Z,98364.59
2022-10-17T10:56:26.131Z,98381.59
2022-10-17T10:58:56.991Z,98374.59
2022-10-17T11:01:35.548Z,98408.13
2022-10-17T11:04:25.100Z,98395.09
2022-10-17T11:06:53.234Z,98412.13
2022-10-17T11:09:28.813Z,98439.09
2022-10-17T11:12:05.573Z,98504.34
2022-10-17T11:14:51.996Z,98478.97
2022-10-17T11:17:44.796Z,98513.38
2022-10-17T11:20:16.009Z,98538.44
2022-10-17T11:22:45.395Z,98558.78
2022-10-17T11:25:11.777Z,98589.16
2022-10-17T11:27:38.190Z,98575.13
2022-10-17T11:30:05.679Z,98604.16
2022-10-17T11:32:39.107Z,98604.16
2022-10-17T11:35:08.068Z,98584.97
2022-10-17T11:37:38.362Z,98599.09
2022-10-17T11:40:20.404Z,98616.72
2022-10-17T11:43:03.560Z,98645.81
2022-10-17T11:45:33.814Z,98662.13
2022-10-17T11:48:06.480Z,98618.47
2022-10-17T11:53:34.271Z,98679.38
2022-10-17T11:56:00.661Z,98690.53
2022-10-17T11:58:38.465Z,98741.31
2022-10-17T12:01:26.200Z,98752.22
2022-10-17T12:03:58.666Z,98772.13
2022-10-17T12:06:47.470Z,98804.22
2022-10-17T12:09:29.178Z,98845.94
2022-10-17T12:11:57.251Z,98835.09
2022-10-17T12:14:41.924Z,98825.53
2022-10-17T12:17:32.404Z,98815.34
2022-10-17T12:20:28.530Z,98801.47
2022-10-17T12:22:58.320Z,98810.50
2022-10-17T12:25:29.996Z,98854.31
2022-10-17T12:28:25.968Z,98868.69
2022-10-17T12:31:17.340Z,98900.00
2022-10-17T12:33:51.935Z,98873.50
2022-10-17T12:36:28.043Z,98902.44
2022-10-17T12:39:03.730Z,98933.34
2022-10-17T12:41:39.413Z,98935.66
2022-10-17T12:44:26.885Z,98922.84
2022-10-17T12:46:59.407Z,98912.88
2022-10-17T12:49:38.935Z,98909.84
2022-10-17T12:52:17.553Z,98903.72
2022-10-17T12:55:10.563Z,98861.78
2022-10-17T12:58:00.231Z,98890.03
2022-10-17T13:01:05.344Z,98871.28
2022-10-17T13:03:35.629Z,98917.50
2022-10-17T13:06:03.878Z,98954.41
2022-10-17T13:08:32.518Z,98993.91
2022-10-17T13:10:59.037Z,98973.72
2022-10-17T13:13:39.095Z,99007.38
2022-10-17T13:16:05.621Z,99031.66
2022-10-17T13:18:32.019Z,99029.66
2022-10-17T13:21:03.806Z,99032.28
2022-10-17T13:23:35.333Z,99041.13
2022-10-17T13:29:05.310Z,99057.94
2022-10-17T13:31:36.594Z,99061.28
2022-10-17T13:34:05.388Z,99069.09
2022-10-17T13:36:32.342Z,99073.34
2022-10-17T13:38:59.835Z,99060.00
2022-10-17T13:41:37.162Z,99072.19
2022-10-17T13:44:12.647Z,99082.06
2022-10-17T13:46:39.901Z,99085.50
2022-10-17T13:49:33.850Z,99078.25
2022-10-17T13:52:01.391Z,99077.94
2022-10-17T13:54:30.969Z,99091.00
2022-10-17T13:56:57.823Z,99085.84
2022-10-17T13:59:26.837Z,99090.81
2022-10-17T14:01:54.925Z,99082.78
2022-10-17T14:04:21.352Z,99078.28
2022-10-17T14:06:49.831Z,99090.22
2022-10-17T14:09:25.084Z,99075.78
2022-10-17T14:12:11.042Z,99068.38
2022-10-17T14:14:58.393Z,99090.13
2022-10-17T14:17:25.792Z,99073.34
2022-10-17T14:20:16.047Z,99078.75
2022-10-17T14:22:40.576Z,99075.91
2022-10-17T14:25:29.950Z,99070.34
2022-10-17T14:28:07.972Z,99072.63
2022-10-17T14:30:55.572Z,99080.88
2022-10-17T14:33:25.984Z,99079.06
2022-10-17T14:35:53.066Z,99107.53
2022-10-17T14:38:19.733Z,99115.97
2022-10-17T14:40:50.778Z,99124.50
2022-10-17T14:43:21.641Z,99119.31
2022-10-17T14:45:48.039Z,99116.84
2022-10-17T14:48:16.489Z,99121.34
2022-10-17T14:50:46.777Z,99114.69
2022-10-17T14:53:13.133Z,99108.78
2022-10-17T14:55:40.171Z,99110.25
2022-10-17T14:58:24.039Z,99113.22
2022-10-17T15:00:50.479Z,99095.41
2022-10-17T15:03:19.219Z,99100.75
2022-10-17T15:05:46.639Z,99101.16
2022-10-17T15:08:14.289Z,99099.22
2022-10-17T15:10:41.951Z,99086.50
2022-10-17T15:15:55.229Z,99056.38
2022-10-17T15:18:21.608Z,99053.19
2022-10-17T15:20:52.676Z,99059.06
2022-10-17T15:23:27.130Z,99070.13
2022-10-17T15:25:53.527Z,99056.25
2022-10-17T15:28:19.921Z,99055.47
2022-10-17T15:30:46.369Z,99044.78
2022-10-17T15:33:12.722Z,99040.31
2022-10-17T15:35:39.107Z,99044.78
2022-10-17T15:38:06.757Z,99047.75
2022-10-17T15:40:33.152Z,99043.69
2022-10-17T15:42:59.579Z,99025.50
2022-10-17T15:45:25.993Z,99030.84
2022-10-17T15:47:56.496Z,99021.38
2022-10-17T15:50:22.954Z,99014.63
2022-10-17T15:52:52.406Z,99001.19
2022-10-17T15:55:19.108Z,99002.47
2022-10-17T15:57:46.141Z,98994.47
2022-10-17T16:00:23.064Z,98989.41
2022-10-17T16:02:49.899Z,98976.25
2022-10-17T16:05:25.510Z,98981.34
2022-10-17T16:07:55.671Z,98981.03
2022-10-17T16:10:22.386Z,98971.09
2022-10-17T16:12:49.959Z,98963.94
2022-10-17T16:15:22.452Z,98969.28
2022-10-17T16:17:52.787Z,98959.75
2022-10-17T16:20:19.727Z,98948.81
2022-10-17T16:22:46.268Z,98942.09
2022-10-17T16:25:19.888Z,98923.91
2022-10-17T16:27:47.271Z,98919.13
2022-10-17T16:30:13.815Z,98911.88
2022-10-17T16:32:40.375Z,98893.69
2022-10-17T16:35:07.124Z,98857.88
2022-10-17T16:37:33.713Z,98862.47
2022-10-17T16:40:00.627Z,98861.78
2022-10-17T16:42:27.116Z,98847.78
2022-10-17T16:44:53.601Z,98849.44
2022-10-17T16:47:20.079Z,98844.69
2022-10-17T16:49:46.576Z,98838.00
2022-10-17T16:52:13.070Z,98821.34
2022-10-17T16:54:39.490Z,98810.84
2022-10-17T16:57:06.007Z,98813.63
2022-10-17T16:59:32.440Z,98806.91
2022-10-17T17:01:58.802Z,98804.13
2022-10-17T17:04:25.301Z,98811.81
2022-10-17T17:06:51.775Z,98797.66
2022-10-17T17:09:18.170Z,98804.97
2022-10-17T17:11:44.527Z,98793.16
2022-10-17T17:14:11.056Z,98763.25
2022-10-17T17:16:37.445Z,98734.13
2022-10-17T17:19:08.192Z,98705.72
2022-10-17T17:21:34.782Z,98650.06
2022-10-17T17:24:01.876Z,98589.78
2022-10-17T17:26:29.828Z,98541.41
2022-10-17T17:28:57.722Z,98555.09
2022-10-17T17:31:26.103Z,98576.38
2022-10-17T17:33:52.752Z,98593.44
2022-10-17T17:36:27.358Z,98614.38
2022-10-17T17:38:54.952Z,98631.44
2022-10-17T17:41:21.385Z,98652.28
2022-10-17T17:43:48.223Z,98657.75
2022-10-17T17:46:19.129Z,98656.19
2022-10-17T17:48:46.277Z,98669.66
2022-10-17T17:51:13.606Z,98672.31
2022-10-17T17:53:40.099Z,98681.38
2022-10-17T17:56:26.565Z,98688.38
2022-10-17T17:58:55.120Z,98689.50
2022-10-17T18:01:22.820Z,98681.25
2022-10-17T18:03:50.079Z,98667.00
2022-10-17T18:06:16.717Z,98651.72
2022-10-17T18:08:51.203Z,98626.25
2022-10-17T18:11:19.724Z,98636.38
2022-10-17T18:13:52.428Z,98609.78
2022-10-17T18:16:18.903Z,98554.50
2022-10-17T18:18:45.283Z,98512.84
2022-10-17T18:21:12.962Z,98460.56
2022-10-17T18:23:43.441Z,98364.69
2022-10-17T18:26:10.034Z,98276.31
2022-10-17T18:28:37.608Z,98238.06
2022-10-17T18:31:12.300Z,98181.91
2022-10-17T18:33:39.272Z,98122.41
2022-10-17T18:36:07.635Z,98068.91
2022-10-17T18:38:34.052Z,98034.72
2022-10-17T18:41:07.238Z,97995.84
2022-10-17T18:43:38.021Z,97980.25
2022-10-17T18:46:12.444Z,97937.75
2022-10-17T18:48:42.626Z,97882.59
2022-10-17T18:51:09.086Z,97762.94
2022-10-17T18:53:36.684Z,97690.41
2022-10-17T18:56:03.346Z,97629.03
2022-10-17T18:58:29.786Z,97542.13
2022-10-17T19:01:01.651Z,97504.59
2022-10-17T19:03:28.035Z,97448.22
2022-10-17T19:05:56.659Z,97425.50
2022-10-17T19:08:25.472Z,97434.63
2022-10-17T19:10:51.833Z,97439.25
2022-10-17T19:13:21.516Z,97427.84
2022-10-17T19:15:48.194Z,97429.81
2022-10-17T19:18:14.610Z,97392.19
2022-10-17T19:20:41.008Z,97386.03
2022-10-17T19:23:07.405Z,97391.34
2022-10-17T19:25:33.817Z,97377.59
2022-10-17T19:28:00.479Z,97368.00
2022-10-17T19:30:26.862Z,97374.09
2022-10-17T19:32:53.284Z,97381.41
2022-10-17T19:35:19.695Z,97358.03
2022-10-17T19:37:46.060Z,97338.81
2022-10-17T19:40:12.820Z,97326.56
2022-10-17T19:42:39.222Z,97319.56
2022-10-17T19:45:06.361Z,97311.94
2022-10-17T19:47:32.733Z,97368.31
2022-10-17T19:49:59.136Z,97327.53
2022-10-17T19:52:25.663Z,97314.28
2022-10-17T19:54:52.040Z,97308.81
2022-10-17T19:57:18.436Z,97274.03
2022-10-17T19:59:44.864Z,97240.50
2022-10-17T20:02:12.846Z,97208.22
2022-10-17T20:04:49.584Z,97188.66
2022-10-17T20:07:25.712Z,97141.63
2022-10-17T20:09:52.071Z,97119.75
2022-10-17T20:12:18.446Z,97098.72
2022-10-17T20:14:44.813Z,97046.38
2022-10-17T20:17:11.199Z,96997.19
2022-10-17T20:19:37.574Z,96950.47
2022-10-17T20:22:03.980Z,96929.94
2022-10-17T20:24:30.411Z,96877.59
2022-10-17T20:26:56.891Z,96843.13
2022-10-17T20:29:24.002Z,96795.44
2022-10-17T20:31:50.522Z,96700.41
2022-10-17T20:34:17.671Z,96581.84
2022-10-17T20:36:44.271Z,96469.50
2022-10-17T20:39:12.058Z,96365.88
2022-10-17T20:41:38.551Z,96271.69
2022-10-17T20:44:06.700Z,96169.75
2022-10-17T20:46:37.617Z,96108.84
2022-10-17T20:49:06.720Z,96065.84
2022-10-17T20:51:33.661Z,96021.84
2022-10-17T20:54:00.189Z,95982.09
2022-10-17T20:56:28.534Z,95948.69
2022-10-17T20:58:56.909Z,95899.34
2022-10-17T21:01:23.801Z,95838.03
2022-10-17T21:03:50.444Z,95775.91
2022-10-17T21:06:17.257Z,95730.47
2022-10-17T21:08:43.947Z,95704.38
2022-10-17T21:11:14.304Z,95639.63
2022-10-17T21:13:40.761Z,95563.88
2022-10-17T21:16:11.723Z,95307.50
2022-10-17T21:18:38.334Z,95220.72
2022-10-17T21:21:11.371Z,95154.97
2022-10-17T21:23:38.111Z,95089.78
2022-10-17T21:26:05.839Z,94946.03
2022-10-17T21:28:32.321Z,94815.41
2022-10-17T21:31:21.599Z,94611.50
2022-10-17T21:33:49.609Z,94421.09
2022-10-17T21:36:19.184Z,94257.53
2022-10-17T21:38:48.221Z,94061.44
2022-10-17T21:41:15.727Z,93804.78
2022-10-17T21:43:42.491Z,93644.47
2022-10-17T21:46:16.504Z,93477.34
2022-10-17T21:48:43.470Z,93294.34
2022-10-17T21:51:12.236Z,93304.91
2022-10-17T21:53:38.786Z,93147.81
2022-10-17T21:56:07.178Z,93017.47
2022-10-17T21:58:33.613Z,92913.03
2022-10-17T22:01:16.960Z,92781.91
2022-10-17T22:03:46.753Z,92659.75
2022-10-17T22:09:09.632Z,92451.50
2022-10-17T22:11:36.077Z,92423.78
2022-10-17T22:14:05.113Z,92372.28
2022-10-17T22:16:31.687Z,92311.97
2022-10-17T22:19:03.109Z,92254.91
2022-10-17T22:21:32.482Z,92172.97
2022-10-17T22:24:00.514Z,92097.41
2022-10-17T22:26:30.689Z,92033.47
2022-10-17T22:28:57.209Z,91986.97
2022-10-17T22:31:23.614Z,91991.25
2022-10-17T22:33:50.163Z,91939.97
2022-10-17T22:36:16.579Z,91907.50
2022-10-17T22:38:42.957Z,91876.06
2022-10-17T22:41:09.341Z,91831.16
2022-10-17T22:43:35.770Z,91630.34
2022-10-17T22:46:04.689Z,91368.28
2022-10-17T22:48:31.197Z,91349.03
2022-10-17T22:50:58.237Z,91324.47
2022-10-17T22:53:26.398Z,91308.31
2022-10-17T22:55:53.351Z,91325.25
2022-10-17T22:58:20.256Z,91418.63
2022-10-17T23:00:47.498Z,91409.13
2022-10-17T23:03:13.893Z,91327.25
2022-10-17T23:05:40.496Z,91204.19
2022-10-17T23:08:07.040Z,91105.97
2022-10-17T23:10:33.636Z,90782.19
2022-10-17T23:13:00.000Z,90758.09
2022-10-17T23:15:26.390Z,90739.94
2022-10-17T23:17:52.763Z,90750.81
2022-10-17T23:20:19.177Z,90769.28
2022-10-17T23:22:45.545Z,90819.16
2022-10-17T23:25:11.938Z,90862.06
2022-10-17T23:27:38.319Z,90897.47
2022-10-17T23:30:05.081Z,90940.38
2022-10-17T23:32:31.690Z,90966.78
2022-10-17T23:34:58.249Z,91003.78
2022-10-17T23:37:24.622Z,91028.59
2022-10-17T23:39:50.999Z,91058.00
2022-10-17T23:42:17.468Z,91090.44
2022-10-17T23:44:43.827Z,91102.41
2022-10-17T23:47:10.187Z,91115.31
2022-10-17T23:49:36.548Z,91132.25
2022-10-17T23:52:02.994Z,91176.34
2022-10-17T23:54:29.396Z,91207.88
2022-10-17T23:56:55.843Z,91225.28
2022-10-17T23:59:22.231Z,91258.53
